Time;durP1;ratioP1;P1;durP2;ratioP2;P2;SDS_P1;SDS_P2;PMS_P1;PMS_P2;Temp;Humidity;BMP_temperature;BMP_pressure;BME280_temperature;BME280_humidity;BME280_pressure;Samples;Min_cycle;Max_cycle;Signal;HPM_P1;HPM_P2
2023/06/05 00:00:00;;;;;;;0.40;0.40;;;;;;;17.94;100.00;99898.81;4971609;28;20201;-71
2023/06/05 00:02:27;;;;;;;0.50;0.50;;;;;;;18.03;100.00;99902.69;4971777;28;20257;-70
2023/06/05 00:04:54;;;;;;;0.60;0.60;;;;;;;18.03;100.00;99900.09;4971925;28;20210;-71
2023/06/05 00:07:21;;;;;;;0.60;0.60;;;;;;;17.96;100.00;99890.94;4971324;28;20211;-71
2023/06/05 00:09:49;;;;;;;0.50;0.50;;;;;;;17.80;100.00;99891.72;4971985;28;20212;-71
2023/06/05 00:12:16;;;;;;;0.50;0.50;;;;;;;17.76;100.00;99886.78;4971824;28;20205;-71
2023/06/05 00:14:43;;;;;;;0.50;0.50;;;;;;;17.48;100.00;99879.53;4971930;28;20675;-71
2023/06/05 00:17:10;;;;;;;0.53;0.53;;;;;;;17.50;100.00;99884.66;4971309;28;20210;-71
2023/06/05 00:19:37;;;;;;;0.50;0.50;;;;;;;17.42;100.00;99890.22;4971558;28;20203;-71
2023/06/05 00:22:04;;;;;;;0.47;0.47;;;;;;;17.44;100.00;99893.59;4971226;28;20207;-71
2023/06/05 00:24:31;;;;;;;0.40;0.40;;;;;;;17.39;100.00;99889.53;4971670;28;20207;-70
2023/06/05 00:26:59;;;;;;;0.50;0.50;;;;;;;17.27;100.00;99872.88;4971474;28;20611;-71
2023/06/05 00:29:26;;;;;;;0.50;0.50;;;;;;;17.31;100.00;99892.53;4971292;28;20215;-71
2023/06/05 00:31:53;;;;;;;0.43;0.43;;;;;;;17.35;100.00;99896.63;4971272;28;20639;-71
2023/06/05 00:34:20;;;;;;;0.60;0.60;;;;;;;17.29;100.00;99883.97;4971468;28;20698;-71
2023/06/05 00:36:50;;;;;;;0.40;0.40;;;;;;;17.17;100.00;99858.69;4970945;28;20298;-71
2023/06/05 00:39:18;;;;;;;0.50;0.50;;;;;;;17.48;100.00;99900.28;4971180;28;20203;-71
2023/06/05 00:41:45;;;;;;;0.63;0.63;;;;;;;17.54;100.00;99894.81;4971157;28;20205;-71
2023/06/05 00:44:13;;;;;;;0.43;0.43;;;;;;;17.62;100.00;99890.09;4970924;28;20272;-71
2023/06/05 00:46:40;;;;;;;0.40;0.40;;;;;;;17.66;100.00;99894.22;4971611;28;20668;-71
2023/06/05 00:49:08;;;;;;;0.40;0.40;;;;;;;17.71;100.00;99897.41;4970428;28;20235;-71
2023/06/05 00:51:35;;;;;;;0.50;0.50;;;;;;;17.75;100.00;99898.91;4971591;28;20209;-71
2023/06/05 00:54:02;;;;;;;0.60;0.60;;;;;;;17.78;100.00;99896.16;4970908;28;20201;-71
2023/06/05 00:56:29;;;;;;;0.40;0.40;;;;;;;17.80;100.00;99902.09;4971125;28;20634;-71
2023/06/05 00:58:58;;;;;;;0.60;0.60;;;;;;;17.77;100.00;99907.44;4970517;28;20211;-71
2023/06/05 01:01:28;;;;;;;0.50;0.50;;;;;;;17.76;100.00;99899.78;4970479;28;20205;-71
2023/06/05 01:03:57;;;;;;;0.40;0.40;;;;;;;17.73;100.00;99900.75;4971020;28;20259;-71
2023/06/05 01:06:24;;;;;;;0.50;0.50;;;;;;;17.74;100.00;99898.97;4970929;28;20712;-71
2023/06/05 01:08:52;;;;;;;0.40;0.40;;;;;;;17.68;100.00;99896.72;4971007;28;20220;-71
2023/06/05 01:11:25;;;;;;;0.43;0.43;;;;;;;17.75;100.00;99898.06;4970958;28;20270;-71
2023/06/05 01:14:01;;;;;;;0.40;0.40;;;;;;;17.75;100.00;99906.69;4970370;28;20232;-71
2023/06/05 01:16:30;;;;;;;0.57;0.57;;;;;;;17.80;100.00;99907.28;4970257;28;20231;-71
2023/06/05 01:19:01;;;;;;;0.50;0.50;;;;;;;17.84;100.00;99905.38;4970722;28;20199;-71
2023/06/05 01:21:28;;;;;;;0.50;0.50;;;;;;;17.83;100.00;99896.75;4969921;28;20301;-71
2023/06/05 01:23:57;;;;;;;0.50;0.50;;;;;;;17.84;100.00;99898.44;4971277;28;20211;-71
2023/06/05 01:26:31;;;;;;;0.50;0.50;;;;;;;17.88;100.00;99899.13;4970174;28;20223;-71
2023/06/05 01:28:59;;;;;;;0.43;0.43;;;;;;;17.77;100.00;99886.69;4970670;28;20216;-71
2023/06/05 01:31:28;;;;;;;0.53;0.53;;;;;;;17.81;100.00;99898.59;4970150;28;20259;-71
2023/06/05 01:34:01;;;;;;;0.60;0.60;;;;;;;17.79;100.00;99903.03;4969715;28;20203;-71
2023/06/05 01:36:30;;;;;;;0.43;0.43;;;;;;;17.81;100.00;99911.56;4969541;28;20222;-71
2023/06/05 01:38:59;;;;;;;0.40;0.40;;;;;;;17.86;100.00;99915.69;4970248;28;20228;-71
2023/06/05 01:41:27;;;;;;;0.60;0.60;;;;;;;17.86;100.00;99920.88;4970934;28;20207;-71
2023/06/05 01:43:56;;;;;;;0.43;0.43;;;;;;;17.86;100.00;99918.28;4971127;28;20211;-71
2023/06/05 01:46:24;;;;;;;0.47;0.47;;;;;;;17.85;100.00;99920.03;4970255;28;20203;-71
2023/06/05 01:48:52;;;;;;;0.40;0.40;;;;;;;17.86;100.00;99926.06;4970605;28;20221;-71
2023/06/05 01:51:19;;;;;;;0.50;0.50;;;;;;;17.80;100.00;99922.84;4970692;28;20220;-71
2023/06/05 01:53:48;;;;;;;0.60;0.60;;;;;;;17.67;100.00;99911.44;4970887;28;20566;-71
2023/06/05 01:56:19;;;;;;;0.40;0.40;;;;;;;17.47;100.00;99908.16;4962842;28;20210;-71
2023/06/05 01:58:48;;;;;;;0.50;0.50;;;;;;;17.33;100.00;99914.88;4971571;28;20223;-71
2023/06/05 02:01:16;;;;;;;0.50;0.50;;;;;;;17.36;100.00;99919.03;4970398;28;20199;-71
2023/06/05 02:03:47;;;;;;;0.50;0.50;;;;;;;17.33;100.00;99916.59;4967858;28;20231;-70
2023/06/05 02:06:16;;;;;;;0.60;0.60;;;;;;;17.26;100.00;99916.06;4974242;28;20209;-71
2023/06/05 02:08:43;;;;;;;0.50;0.50;;;;;;;17.25;100.00;99918.75;4973769;28;20306;-71
2023/06/05 02:11:10;;;;;;;0.40;0.40;;;;;;;17.28;100.00;99924.63;4973852;28;20271;-71
2023/06/05 02:13:40;;;;;;;0.40;0.40;;;;;;;17.28;100.00;99918.59;4974341;28;20294;-71
2023/06/05 02:16:09;;;;;;;0.43;0.43;;;;;;;17.16;100.00;99930.38;4973926;28;20246;-71
2023/06/05 02:18:37;;;;;;;0.30;0.30;;;;;;;17.12;100.00;99928.88;4974046;28;20216;-71
2023/06/05 02:21:04;;;;;;;0.40;0.40;;;;;;;17.05;100.00;99937.00;4973729;28;20663;-71
2023/06/05 02:23:31;;;;;;;0.40;0.40;;;;;;;16.97;100.00;99931.34;4974382;28;20713;-71
2023/06/05 02:25:58;;;;;;;0.50;0.50;;;;;;;16.94;100.00;99932.34;4973561;28;20288;-71
2023/06/05 02:28:26;;;;;;;0.50;0.50;;;;;;;16.88;100.00;99930.03;4972857;28;20219;-71
2023/06/05 02:30:55;;;;;;;0.50;0.50;;;;;;;16.78;100.00;99934.81;4973126;28;20204;-71
2023/06/05 02:33:22;;;;;;;0.40;0.40;;;;;;;16.80;100.00;99922.63;4974198;28;20699;-71
2023/06/05 02:35:49;;;;;;;0.50;0.50;;;;;;;16.85;100.00;99927.59;4973610;28;20204;-71
2023/06/05 02:38:16;;;;;;;0.60;0.60;;;;;;;16.72;100.00;99909.22;4973107;28;20195;-71
2023/06/05 02:40:43;;;;;;;0.60;0.60;;;;;;;16.89;100.00;99925.69;4974152;28;20203;-72
2023/06/05 02:43:11;;;;;;;0.50;0.50;;;;;;;16.95;100.00;99925.41;4973360;28;20207;-71
2023/06/05 02:45:38;;;;;;;0.47;0.47;;;;;;;17.00;100.00;99921.69;4973312;28;20243;-72
2023/06/05 02:48:06;;;;;;;0.40;0.40;;;;;;;17.06;100.00;99925.75;4973132;28;20214;-71
2023/06/05 02:50:33;;;;;;;0.50;0.50;;;;;;;17.07;100.00;99919.63;4973621;28;20580;-71
2023/06/05 02:53:00;;;;;;;1.27;0.63;;;;;;;17.04;100.00;99919.78;4973634;28;20667;-71
2023/06/05 02:55:29;;;;;;;0.50;0.50;;;;;;;17.06;100.00;99928.34;4967511;28;20207;-71
2023/06/05 02:57:57;;;;;;;0.40;0.40;;;;;;;17.07;100.00;99930.00;4970641;28;20579;-72
2023/06/05 03:00:25;;;;;;;0.50;0.50;;;;;;;17.03;100.00;99918.09;4972769;28;20200;-71
2023/06/05 03:02:52;;;;;;;0.40;0.40;;;;;;;16.99;100.00;99921.75;4973692;28;20205;-71
2023/06/05 03:05:24;;;;;;;0.57;0.57;;;;;;;16.99;100.00;99916.59;4975943;28;20196;-71
2023/06/05 03:07:54;;;;;;;0.90;0.90;;;;;;;16.91;100.00;99904.00;4975091;28;20290;-71
2023/06/05 03:10:21;;;;;;;0.60;0.60;;;;;;;16.97;100.00;99913.22;4972957;28;20702;-72
2023/06/05 03:12:48;;;;;;;0.30;0.30;;;;;;;16.94;100.00;99913.34;4974594;28;20254;-72
2023/06/05 03:15:16;;;;;;;0.37;0.37;;;;;;;16.87;100.00;99901.59;4974285;28;20294;-71
2023/06/05 03:17:44;;;;;;;0.43;0.43;;;;;;;16.83;100.00;99900.94;4973362;28;20575;-71
2023/06/05 03:20:12;;;;;;;0.50;0.50;;;;;;;16.68;100.00;99905.09;4972700;28;20290;-71
2023/06/05 03:22:40;;;;;;;0.40;0.40;;;;;;;16.63;100.00;99903.63;4973105;28;20215;-72
2023/06/05 03:25:08;;;;;;;0.53;0.53;;;;;;;16.64;100.00;99897.56;4973164;28;20419;-72
2023/06/05 03:27:35;;;;;;;0.47;0.47;;;;;;;16.47;100.00;99885.34;4973084;28;21158;-71
2023/06/05 03:30:02;;;;;;;0.60;0.60;;;;;;;16.43;100.00;99896.75;4973343;28;20755;-71
2023/06/05 03:32:29;;;;;;;0.50;0.50;;;;;;;16.32;100.00;99883.47;4972743;28;20196;-71
2023/06/05 03:34:56;;;;;;;0.50;0.50;;;;;;;16.21;100.00;99886.56;4972761;28;20204;-72
2023/06/05 03:37:23;;;;;;;0.70;0.70;;;;;;;16.28;100.00;99887.94;4972036;28;20203;-71
2023/06/05 03:39:51;;;;;;;0.50;0.50;;;;;;;16.39;100.00;99890.03;4968851;28;20195;-71
2023/06/05 03:42:17;;;;;;;0.53;0.53;;;;;;;16.51;100.00;99899.00;4972751;28;20207;-71
2023/06/05 03:44:44;;;;;;;0.40;0.40;;;;;;;16.66;100.00;99888.78;4972491;28;20207;-71
2023/06/05 03:47:14;;;;;;;0.60;0.60;;;;;;;16.79;100.00;99894.22;4972268;28;20199;-71
2023/06/05 03:49:47;;;;;;;0.40;0.40;;;;;;;16.91;100.00;99883.28;4976208;28;20219;-71
2023/06/05 03:52:14;;;;;;;0.50;0.50;;;;;;;17.08;100.00;99888.47;4972315;28;20207;-71
2023/06/05 03:54:44;;;;;;;0.43;0.43;;;;;;;17.19;100.00;99888.78;4972437;28;20203;-72
2023/06/05 03:57:14;;;;;;;0.50;0.50;;;;;;;17.40;100.00;99897.25;4972061;28;20251;-71
2023/06/05 03:59:41;;;;;;;0.70;0.70;;;;;;;17.58;100.00;99901.53;4971073;28;20192;-72
2023/06/05 04:02:08;;;;;;;0.53;0.53;;;;;;;17.72;100.00;99914.66;4972146;28;20199;-72
2023/06/05 04:04:35;;;;;;;0.50;0.50;;;;;;;17.80;100.00;99896.91;4974819;28;20204;-71
2023/06/05 04:07:02;;;;;;;0.60;0.60;;;;;;;17.95;100.00;99900.47;4972519;28;20200;-71
2023/06/05 04:09:29;;;;;;;0.50;0.50;;;;;;;18.01;100.00;99904.50;4971646;28;20599;-71
2023/06/05 04:11:56;;;;;;;0.67;0.67;;;;;;;18.01;100.00;99901.91;4972101;28;20205;-72
2023/06/05 04:14:24;;;;;;;0.77;0.77;;;;;;;18.04;100.00;99899.16;4971728;28;20213;-71
2023/06/05 04:16:50;;;;;;;1.00;1.00;;;;;;;17.92;100.00;99903.25;4971784;28;20195;-71
2023/06/05 04:19:17;;;;;;;0.50;0.50;;;;;;;17.81;100.00;99903.78;4971710;28;20212;-71
2023/06/05 04:21:44;;;;;;;0.50;0.50;;;;;;;17.76;100.00;99905.78;4971140;28;20208;-70
2023/06/05 04:24:11;;;;;;;0.57;0.57;;;;;;;17.76;100.00;99905.78;4970082;28;20204;-71
2023/06/05 04:26:41;;;;;;;0.47;0.47;;;;;;;17.75;100.00;99908.44;4956384;28;20228;-70
2023/06/05 04:29:13;;;;;;;0.47;0.47;;;;;;;17.78;100.00;99903.94;4951840;28;20217;-71
2023/06/05 04:31:41;;;;;;;0.43;0.43;;;;;;;17.96;100.00;99914.31;4951866;28;20662;-71
2023/06/05 04:34:08;;;;;;;0.70;0.70;;;;;;;18.11;100.00;99911.72;4948898;28;20906;-71
2023/06/05 04:36:36;;;;;;;0.50;0.50;;;;;;;18.29;100.00;99920.28;4950327;28;20227;-70
2023/06/05 04:39:04;;;;;;;0.50;0.50;;;;;;;18.34;100.00;99928.69;4951698;29;20207;-71
2023/06/05 04:41:32;;;;;;;0.40;0.40;;;;;;;18.41;100.00;99930.03;4949312;28;20229;-71
2023/06/05 04:43:59;;;;;;;0.73;0.73;;;;;;;18.38;100.00;99915.44;4950689;29;20210;-72
2023/06/05 04:46:27;;;;;;;0.50;0.50;;;;;;;18.57;100.00;99935.25;4951293;29;20201;-71
2023/06/05 04:48:57;;;;;;;0.57;0.57;;;;;;;18.75;100.00;99942.03;4950509;29;20301;-72
2023/06/05 04:51:24;;;;;;;0.80;0.80;;;;;;;18.84;99.54;99934.56;4951108;29;20241;-71
2023/06/05 04:53:52;;;;;;;0.80;0.80;;;;;;;18.97;97.65;99939.09;4950699;28;20218;-71
2023/06/05 04:56:20;;;;;;;0.40;0.40;;;;;;;18.83;96.90;99947.66;4953552;28;20214;-72
2023/06/05 04:58:50;;;;;;;0.60;0.60;;;;;;;18.82;97.36;99949.41;4951468;29;20736;-71
2023/06/05 05:01:17;;;;;;;0.50;0.50;;;;;;;18.65;97.37;99933.91;4950479;28;20208;-71
2023/06/05 05:03:45;;;;;;;0.47;0.47;;;;;;;18.79;97.65;99952.19;4949337;28;20262;-71
2023/06/05 05:06:16;;;;;;;0.70;0.70;;;;;;;18.78;97.63;99950.50;4952429;28;20205;-71
2023/06/05 05:08:44;;;;;;;0.50;0.50;;;;;;;18.91;98.90;99949.81;4948015;29;20221;-71
2023/06/05 05:11:12;;;;;;;0.87;0.87;;;;;;;19.17;98.07;99951.81;4946430;29;20278;-71
2023/06/05 05:13:38;;;;;;;0.57;0.57;;;;;;;19.42;96.53;99954.69;4951720;29;20207;-71
2023/06/05 05:16:05;;;;;;;0.40;0.40;;;;;;;19.59;94.73;99945.94;4950034;29;20199;-71
2023/06/05 05:18:32;;;;;;;0.47;0.47;;;;;;;19.73;93.13;99962.44;4951379;29;20215;-71
2023/06/05 05:20:59;;;;;;;0.37;0.37;;;;;;;19.64;89.90;99962.13;4950191;29;20656;-71
2023/06/05 05:23:27;;;;;;;0.50;0.50;;;;;;;19.72;89.19;99965.09;4950229;29;20218;-71
2023/06/05 05:25:54;;;;;;;0.70;0.70;;;;;;;19.72;89.58;99971.16;4951590;28;20230;-71
2023/06/05 05:28:21;;;;;;;0.60;0.60;;;;;;;19.67;89.74;99973.19;4950847;29;20214;-71
2023/06/05 05:30:48;;;;;;;0.40;0.40;;;;;;;19.56;90.38;99940.91;4944685;29;20220;-71
2023/06/05 05:33:15;;;;;;;0.87;0.87;;;;;;;19.73;91.68;99957.22;4950169;29;20198;-71
2023/06/05 05:35:42;;;;;;;0.40;0.40;;;;;;;19.87;91.04;99970.22;4951260;28;20205;-71
2023/06/05 05:38:09;;;;;;;0.60;0.60;;;;;;;19.96;90.50;99973.25;4955000;28;20675;-71
2023/06/05 05:40:37;;;;;;;0.47;0.47;;;;;;;20.07;91.18;99976.00;4954854;29;20200;-76
2023/06/05 05:43:04;;;;;;;0.40;0.40;;;;;;;20.03;88.98;99979.75;4954463;28;20203;-70
2023/06/05 05:45:30;;;;;;;0.40;0.40;;;;;;;19.91;89.88;99976.94;4951337;28;20274;-70
2023/06/05 05:47:57;;;;;;;0.93;0.93;;;;;;;20.06;91.13;99979.56;4950929;28;20433;-71
2023/06/05 05:50:24;;;;;;;0.60;0.60;;;;;;;20.25;89.83;99980.97;4952651;28;20238;-70
2023/06/05 05:52:53;;;;;;;0.30;0.30;;;;;;;20.42;88.22;99987.78;4953423;28;20209;-71
2023/06/05 05:55:19;;;;;;;0.47;0.47;;;;;;;20.65;89.12;99984.59;4953915;28;20211;-70
2023/06/05 05:57:48;;;;;;;0.40;0.40;;;;;;;20.85;88.36;99985.94;4955144;28;20256;-70
2023/06/05 06:00:15;;;;;;;0.70;0.70;;;;;;;20.99;87.30;99990.28;4953530;28;20264;-71
2023/06/05 06:02:43;;;;;;;0.40;0.40;;;;;;;21.17;88.53;99973.50;4954317;28;20212;-70
2023/06/05 06:05:12;;;;;;;0.47;0.47;;;;;;;21.55;87.11;99971.81;4954366;28;20259;-70
2023/06/05 06:07:40;;;;;;;0.60;0.60;;;;;;;21.82;88.49;99975.22;4954439;28;20204;-71
2023/06/05 06:10:09;;;;;;;0.23;0.23;;;;;;;21.96;84.24;99974.34;4951381;28;20235;-70
2023/06/05 06:12:36;;;;;;;0.50;0.50;;;;;;;22.13;85.67;99967.97;4953341;28;20561;-71
2023/06/05 06:15:05;;;;;;;0.30;0.30;;;;;;;22.40;83.85;99966.03;4954057;28;20211;-70
2023/06/05 06:17:32;;;;;;;0.30;0.30;;;;;;;22.69;83.68;99967.47;4954370;28;20212;-71
2023/06/05 06:19:58;;;;;;;0.50;0.50;;;;;;;22.89;83.55;99968.66;4952077;28;20223;-70
2023/06/05 06:22:26;;;;;;;0.60;0.60;;;;;;;23.06;81.85;99964.84;4956428;28;20211;-71
2023/06/05 06:24:53;;;;;;;0.40;0.40;;;;;;;23.33;81.21;99965.41;4956177;28;20243;-70
2023/06/05 06:27:21;;;;;;;0.40;0.40;;;;;;;23.47;78.72;99963.50;4954368;28;20268;-70
2023/06/05 06:29:49;;;;;;;0.73;0.73;;;;;;;23.43;82.41;99962.06;4954739;28;20228;-70
2023/06/05 06:32:18;;;;;;;0.40;0.40;;;;;;;23.62;81.37;99964.13;4951687;28;20205;-70
2023/06/05 06:34:45;;;;;;;0.40;0.40;;;;;;;23.70;83.16;99972.25;4953194;28;20316;-70
2023/06/05 06:37:14;;;;;;;0.57;0.57;;;;;;;23.76;82.32;99966.56;4953992;28;20227;-70
2023/06/05 06:39:41;;;;;;;0.40;0.40;;;;;;;23.92;82.24;99971.47;4937257;28;20200;-70
2023/06/05 06:42:11;;;;;;;0.50;0.50;;;;;;;24.07;83.01;99970.31;4956843;28;20211;-70
2023/06/05 06:44:38;;;;;;;0.53;0.53;;;;;;;24.17;79.60;99970.47;4959688;28;20208;-70
2023/06/05 06:47:05;;;;;;;0.53;0.53;;;;;;;24.33;82.66;99970.94;4952789;28;20303;-69
2023/06/05 06:49:34;;;;;;;0.30;0.30;;;;;;;24.50;82.00;99973.06;4964189;28;20628;-71
2023/06/05 06:52:01;;;;;;;0.50;0.50;;;;;;;24.51;79.28;99972.13;4958146;28;20203;-73
2023/06/05 06:54:28;;;;;;;0.90;0.90;;;;;;;24.60;78.74;99967.94;4962102;28;20763;-72
2023/06/05 06:56:55;;;;;;;0.30;0.30;;;;;;;24.50;80.42;99967.81;4955590;28;20620;-73
2023/06/05 06:59:22;;;;;;;0.40;0.40;;;;;;;24.51;80.18;99965.09;4958132;28;20219;-73
2023/06/05 07:02:09;;;;;;;0.63;0.63;;;;;;;24.47;80.83;99968.91;4962798;28;20275;-73
2023/06/05 07:04:38;;;;;;;0.67;0.40;;;;;;;24.53;80.61;99968.41;4961481;28;20200;-73
2023/06/05 07:07:06;;;;;;;0.40;0.40;;;;;;;24.32;80.49;99964.03;4970026;28;20251;-72
2023/06/05 07:09:32;;;;;;;0.57;0.57;;;;;;;24.26;81.81;99969.75;4958775;28;20208;-73
2023/06/05 07:12:04;;;;;;;0.57;0.57;;;;;;;24.39;83.18;99959.97;4960492;28;20203;-73
2023/06/05 07:14:32;;;;;;;0.80;0.80;;;;;;;24.53;83.50;99957.94;4960758;28;20280;-73
2023/06/05 07:16:59;;;;;;;0.40;0.40;;;;;;;24.72;85.70;99957.28;4962027;28;20740;-73
2023/06/05 07:19:27;;;;;;;0.37;0.37;;;;;;;24.82;83.25;99962.66;4958791;28;20200;-73
2023/06/05 07:21:57;;;;;;;0.57;0.57;;;;;;;25.04;83.29;99960.81;4957507;28;20625;-76
2023/06/05 07:24:25;;;;;;;0.37;0.37;;;;;;;25.00;81.09;99953.34;4955783;28;20299;-75
2023/06/05 07:26:52;;;;;;;0.50;0.50;;;;;;;24.93;82.63;99950.38;4970282;28;20235;-75
2023/06/05 07:29:20;;;;;;;0.60;0.60;;;;;;;25.13;83.72;99938.28;4971830;28;20234;-72
2023/06/05 07:31:47;;;;;;;0.30;0.30;;;;;;;25.36;82.86;99946.88;4972984;28;20223;-71
2023/06/05 07:34:14;;;;;;;0.40;0.40;;;;;;;25.50;80.75;99950.03;4973266;28;20207;-70
2023/06/05 07:36:41;;;;;;;0.40;0.40;;;;;;;25.56;80.57;99951.31;4970260;28;20207;-76
2023/06/05 07:39:11;;;;;;;0.47;0.47;;;;;;;25.53;78.75;99954.19;4971406;28;20218;-69
2023/06/05 07:41:38;;;;;;;0.40;0.40;;;;;;;25.51;77.80;99958.75;4972200;28;20202;-70
2023/06/05 07:44:05;;;;;;;0.27;0.27;;;;;;;25.52;76.99;99963.91;4972826;28;20710;-70
2023/06/05 07:46:32;;;;;;;0.40;0.40;;;;;;;25.52;78.68;99963.06;4971954;28;20207;-70
2023/06/05 07:48:59;;;;;;;0.27;0.27;;;;;;;25.56;78.02;99961.81;4972905;28;20210;-70
2023/06/05 07:51:26;;;;;;;0.50;0.50;;;;;;;25.32;76.07;99956.78;4972760;28;20253;-70
2023/06/05 07:53:53;;;;;;;0.77;0.77;;;;;;;25.28;77.82;99955.38;4972399;28;20659;-70
2023/06/05 07:56:23;;;;;;;0.43;0.43;;;;;;;25.25;78.18;99949.53;4975139;28;20204;-69
2023/06/05 07:58:51;;;;;;;0.20;0.20;;;;;;;25.34;77.98;99954.03;4971266;28;20239;-70
2023/06/05 08:01:20;;;;;;;0.50;0.50;;;;;;;25.36;78.02;99946.88;4972670;28;20600;-70
2023/06/05 08:03:47;;;;;;;0.40;0.40;;;;;;;25.06;78.06;99956.31;4972699;28;20312;-68
2023/06/05 08:06:15;;;;;;;0.40;0.40;;;;;;;25.03;77.43;99950.47;4973471;28;20211;-68
2023/06/05 08:08:42;;;;;;;0.40;0.40;;;;;;;25.12;78.27;99948.88;4975042;28;20227;-69
2023/06/05 08:11:09;;;;;;;1.17;1.17;;;;;;;25.36;79.30;99946.88;4972889;28;20223;-70
2023/06/05 08:13:39;;;;;;;0.37;0.37;;;;;;;25.56;77.32;99940.81;4972741;28;20210;-70
2023/06/05 08:16:06;;;;;;;0.40;0.40;;;;;;;25.84;77.57;99942.81;4972850;28;20294;-69
2023/06/05 08:18:34;;;;;;;0.50;0.50;;;;;;;25.88;75.06;99938.94;4972632;28;20213;-71
2023/06/05 08:21:01;;;;;;;0.43;0.43;;;;;;;25.71;74.86;99931.69;4971959;28;20207;-70
2023/06/05 08:23:27;;;;;;;0.40;0.40;;;;;;;25.69;75.89;99944.09;4971378;28;20286;-69
2023/06/05 08:25:55;;;;;;;0.60;0.60;;;;;;;25.78;76.99;99927.56;4972502;28;20250;-69
2023/06/05 08:28:22;;;;;;;0.30;0.30;;;;;;;25.98;74.48;99924.06;4972509;28;20218;-70
2023/06/05 08:30:51;;;;;;;0.30;0.30;;;;;;;26.31;73.97;99924.78;4971521;28;20223;-71
2023/06/05 08:33:19;;;;;;;0.40;0.40;;;;;;;26.30;73.03;99923.13;4971958;28;20675;-70
2023/06/05 08:35:45;;;;;;;0.67;0.67;;;;;;;25.90;76.81;99926.53;4970679;28;20215;-70
2023/06/05 08:38:12;;;;;;;0.77;0.60;;;;;;;26.16;78.36;99920.81;4971348;28;20200;-70
2023/06/05 08:40:40;;;;;;;0.30;0.30;;;;;;;26.37;75.39;99918.97;4974100;28;20203;-71
2023/06/05 08:43:07;;;;;;;0.57;0.57;;;;;;;26.58;74.97;99922.38;4972799;28;20207;-69
2023/06/05 08:45:34;;;;;;;0.37;0.37;;;;;;;26.33;72.36;99897.41;4972148;28;20676;-71
2023/06/05 08:48:03;;;;;;;0.30;0.30;;;;;;;26.55;75.89;99920.03;4971844;28;20210;-71
2023/06/05 08:50:31;;;;;;;0.43;0.43;;;;;;;26.77;75.10;99917.16;4970528;28;20695;-71
2023/06/05 08:53:00;;;;;;;0.50;0.50;;;;;;;26.84;71.30;99925.38;4971670;28;20748;-69
2023/06/05 08:55:27;;;;;;;0.33;0.33;;;;;;;26.64;71.30;99919.19;4973064;28;20195;-70
2023/06/05 08:57:54;;;;;;;0.40;0.40;;;;;;;26.46;74.23;99919.00;4972464;28;20207;-70
2023/06/05 09:00:23;;;;;;;0.30;0.30;;;;;;;26.57;76.55;99916.28;4972375;28;20578;-70
2023/06/05 09:02:50;;;;;;;0.40;0.40;;;;;;;26.71;75.10;99912.44;4970084;28;20203;-69
2023/06/05 09:05:18;;;;;;;0.27;0.27;;;;;;;26.66;72.17;99919.09;4971367;28;20203;-68
2023/06/05 09:07:46;;;;;;;0.50;0.50;;;;;;;26.39;72.52;99915.28;4971119;28;20195;-68
2023/06/05 09:10:24;;;;;;;0.60;0.60;;;;;;;26.31;73.20;99916.91;4967791;28;20207;-69
2023/06/05 09:12:56;;;;;;;0.57;0.57;;;;;;;26.39;74.06;99914.44;4970355;28;20210;-70
2023/06/05 09:15:24;;;;;;;0.40;0.40;;;;;;;26.54;72.59;99915.72;4971890;28;20225;-69
2023/06/05 09:18:05;;;;;;;0.60;0.60;;;;;;;26.57;71.96;99918.06;4971863;28;20635;-70
2023/06/05 09:20:35;;;;;;;0.33;0.33;;;;;;;26.58;73.04;99911.88;4972366;28;20568;-69
2023/06/05 09:23:02;;;;;;;0.30;0.30;;;;;;;26.61;73.52;99916.84;4972133;28;20679;-68
2023/06/05 09:25:47;;;;;;;0.57;0.53;;;;;;;26.54;71.24;99910.47;4973696;28;20234;-69
2023/06/05 09:28:16;;;;;;;0.40;0.40;;;;;;;26.66;72.34;99909.38;4971143;28;20199;-70
2023/06/05 09:31:02;;;;;;;0.30;0.30;;;;;;;26.72;71.84;99903.56;4971668;28;20215;-69
2023/06/05 09:33:30;;;;;;;0.60;0.60;;;;;;;26.93;72.19;99900.84;4972108;28;20233;-70
2023/06/05 09:36:10;;;;;;;0.33;0.33;;;;;;;27.10;70.66;99906.28;4971748;28;20210;-70
2023/06/05 09:38:39;;;;;;;0.30;0.30;;;;;;;27.08;70.38;99910.81;4969843;28;20200;-70
2023/06/05 09:41:07;;;;;;;0.30;0.30;;;;;;;26.96;71.57;99901.41;4971739;28;20203;-71
2023/06/05 09:43:35;;;;;;;0.73;0.40;;;;;;;26.96;70.35;99893.50;4974592;28;20210;-70
2023/06/05 09:46:07;;;;;;;0.37;0.37;;;;;;;27.11;72.49;99893.91;4970967;28;20690;-70
2023/06/05 09:48:35;;;;;;;1.17;0.70;;;;;;;27.18;70.40;99896.81;4968179;28;20207;-70
2023/06/05 09:51:14;;;;;;;0.40;0.40;;;;;;;26.86;69.61;99892.69;4970262;28;20227;-69
2023/06/05 09:53:43;;;;;;;0.40;0.40;;;;;;;26.80;70.71;99889.72;4968779;28;20204;-71
2023/06/05 09:56:13;;;;;;;0.47;0.47;;;;;;;26.69;68.38;99888.06;4969271;28;20215;-70
2023/06/05 09:58:45;;;;;;;0.20;0.20;;;;;;;26.74;71.47;99877.13;4971638;28;20210;-71
2023/06/05 10:01:15;;;;;;;0.63;0.63;;;;;;;26.77;70.11;99864.53;4970648;28;20293;-71
2023/06/05 10:03:48;;;;;;;0.50;0.50;;;;;;;27.00;65.19;99876.50;4974465;28;20207;-71
2023/06/05 10:06:23;;;;;;;0.50;0.50;;;;;;;27.04;66.97;99856.78;4970639;28;20204;-70
2023/06/05 10:08:52;;;;;;;0.30;0.30;;;;;;;27.30;65.62;99861.50;4973730;28;20210;-70
2023/06/05 10:11:20;;;;;;;0.40;0.37;;;;;;;27.50;66.95;99863.97;4969405;28;20262;-70
2023/06/05 10:13:48;;;;;;;0.40;0.40;;;;;;;27.42;67.23;99847.19;4972467;28;20227;-70
2023/06/05 10:16:17;;;;;;;0.47;0.30;;;;;;;27.37;65.13;99852.03;4970738;28;20652;-71
2023/06/05 10:18:47;;;;;;;1.60;0.60;;;;;;;27.49;62.16;99857.06;4967029;28;20262;-71
2023/06/05 10:21:15;;;;;;;0.43;0.43;;;;;;;27.67;64.03;99859.75;4968538;28;20270;-70
2023/06/05 10:23:46;;;;;;;0.33;0.33;;;;;;;27.31;66.02;99863.13;4972439;28;20208;-70
2023/06/05 10:26:27;;;;;;;0.30;0.30;;;;;;;27.20;66.62;99858.88;4977799;28;20606;-69
2023/06/05 10:29:09;;;;;;;0.40;0.40;;;;;;;27.37;66.25;99852.88;4975165;28;20262;-70
2023/06/05 10:31:46;;;;;;;0.50;0.50;;;;;;;27.21;64.14;99855.25;4973527;28;20211;-70
2023/06/05 10:34:29;;;;;;;0.30;0.30;;;;;;;27.04;63.49;99856.78;4969975;28;20203;-69
2023/06/05 10:37:21;;;;;;;0.50;0.50;;;;;;;27.22;65.28;99853.47;4973455;28;20207;-70
2023/06/05 10:39:50;;;;;;;0.40;0.40;;;;;;;27.30;65.89;99853.59;4976289;28;20207;-63
2023/06/05 10:42:25;;;;;;;0.60;0.60;;;;;;;27.46;64.14;99845.97;4973839;28;20636;-63
2023/06/05 10:44:53;;;;;;;0.73;0.73;;;;;;;27.69;64.00;99852.53;4973815;28;20213;-63
2023/06/05 10:47:52;;;;;;;0.30;0.30;;;;;;;27.73;64.18;99846.00;4974080;28;20203;-62
2023/06/05 10:50:26;;;;;;;0.40;0.40;;;;;;;27.43;62.38;99846.22;4975718;28;20215;-63
2023/06/05 10:52:54;;;;;;;0.43;0.43;;;;;;;27.39;63.84;99847.47;4971632;28;20227;-63
2023/06/05 10:55:24;;;;;;;0.37;0.37;;;;;;;27.14;65.35;99799.72;4975234;28;20211;-64
2023/06/05 10:58:15;;;;;;;0.40;0.40;;;;;;;27.20;65.61;99831.72;4960064;28;20215;-73
2023/06/05 11:01:14;;;;;;;3.30;0.77;;;;;;;27.02;64.11;99829.78;4960774;28;20203;-71
2023/06/05 11:03:55;;;;;;;0.40;0.40;;;;;;;26.99;64.15;99822.19;4968864;28;20226;-71
2023/06/05 11:06:22;;;;;;;0.37;0.37;;;;;;;27.20;64.73;99824.66;4960939;28;20692;-73
2023/06/05 11:09:08;;;;;;;0.43;0.43;;;;;;;27.54;64.10;99825.84;4962276;28;20214;-72
2023/06/05 11:12:01;;;;;;;0.50;0.50;;;;;;;27.48;64.47;99826.41;4967633;28;20234;-72
2023/06/05 11:14:45;;;;;;;0.63;0.63;;;;;;;27.42;63.10;99815.59;4973191;28;20303;-72
2023/06/05 11:17:29;;;;;;;0.80;0.80;;;;;;;27.37;62.19;99813.38;4971129;28;20215;-71
2023/06/05 11:19:56;;;;;;;0.40;0.37;;;;;;;27.41;62.55;99821.81;4972551;28;20293;-72
2023/06/05 11:22:25;;;;;;;0.50;0.50;;;;;;;27.39;62.11;99813.25;4971066;28;20314;-72
2023/06/05 11:25:26;;;;;;;0.70;0.70;;;;;;;27.38;60.88;99816.84;4973162;28;20207;-68
2023/06/05 11:27:56;;;;;;;0.50;0.50;;;;;;;27.50;61.66;99811.28;4968509;28;20286;-67
2023/06/05 11:30:26;;;;;;;0.50;0.50;;;;;;;27.61;62.28;99802.38;4974146;28;20207;-68
2023/06/05 11:32:58;;;;;;;0.43;0.43;;;;;;;27.77;63.37;99807.88;4973159;28;20584;-68
2023/06/05 11:35:27;;;;;;;0.30;0.30;;;;;;;27.77;61.80;99807.88;4970612;28;20203;-67
2023/06/05 11:38:08;;;;;;;0.30;0.30;;;;;;;27.64;60.25;99802.94;4974074;28;20212;-67